Robert Lee, Texas
Current Conditions -  °F | °C
As of 1:51 PM on Tuesday 21 Oct 2014 (Local Time) from KSJT Reporting Station
Overcast Overcast  
Wind Chill: 79°   Ceiling: 4800
Heat Index: 80°   Visibility: 10mi
Dew Point: 55°   Wind: 8mph
Humidity: 44%   Direction: 60°ENE
Pressure: 30.05"   Gusts: NA
Location:  31.89°N, 100.48°W
Report Text: KSJT 211851Z 06007KT 10SM BKN048 OVC055 26/13 A3005 RMK AO2 SLP160 T02610128
Loading
Personal Weather Stations






























Interactive Weather Map
Tropical Storm Tracking
New forecast layout! Learn more

10-Day Weather Forecast

Advertisements
Track Severe Weather on mobile